Página principal
METAR-TAF:

METAR-TAF

Aeroportos :

Longyearbyen, Noruega

latitude: 78-15N, longitude: 015-28E, altura: 2 m

Observação actual do tempo

O boletim foi feito há 1 hora e 3 minutos, às 22:50 UTC
Vento 9 kt de sudoeste
Temperatura 3°C
Humidade 75%
Pressão 1015 hPa
Visibilidade 10 km ou mais
Poucas nuvensa uma altura de 2000 ft
Nuvens dispersasa uma altura de 20000 ft

METAR: ENSB 182250Z 22009KT 9999 FEW020 SCT200 03/M01 Q1015 RMK WIND 1400FT 20007KT

Hora: 01:53 (23:53 UTC)

Previsão

Previsão válida de 18 às 18 UTC a 19 às 18 UTC
Vento 8 kt de oeste
Visibilidade 10 km ou mais
Nuvens dispersasa uma altura de 3000 ft

TAF: ENSB 1818/1918 27008KT 9999 SCT030

Observações e previsões do tempo de mais de 4000 aeroportos (mensagens METAR e TAF).

As estações disponíveis são os pontos amarelos e vermelhos sobre o mapa.

Mova o rato sobre o mapa para ver o nome da estação.

Depois clique no ponto para visualizar as observações e previsões meteorológicas.

Para alterar o mapa : clique nos botões verdes com uma cruz preta para aumentar o zoom; no botão verde com uma pitada de zoom; ou nas setas verdes para mapas adjacentes.


METAR-TAF: